.
WxDataArchive / Data Records for 2008-05-09
2008-05-08 May 2008 2008-05-10

Data Records for Friday, 09 May 2008

Time	Temp	Chill	HIndex	Humid	Dewpt	 Wind 	HiWind	WindDir	Rain 	Barom 
-----	----	-----	------	-----	-----	------	------	-------	-----	----- 
00:00	50.1	50.1	50.1	81	44.5	1	4	112	0.00	29.706 
00:05	50.1	50.1	50.1	81	44.5	1	3	112	0.00	29.706 
00:10	50.1	50.1	50.1	81	44.5	1	4	90	0.00	29.706 
00:15	50.1	50.1	50.1	81	44.5	1	6	112	0.00	29.706 
00:20	50.2	50.2	50.2	81	44.6	1	3	45	0.00	29.707 
00:25	50.2	50.2	50.2	81	44.6	1	5	112	0.00	29.706 
00:30	50.2	50.2	50.2	81	44.6	1	4	112	0.00	29.705 
00:35	50.2	50.2	50.2	81	44.6	1	3	112	0.00	29.705 
00:40	50.2	50.2	50.2	81	44.6	1	4	112	0.00	29.705 
00:45	50.2	50.2	50.2	81	44.6	1	4	68	0.00	29.705 
00:50	50.2	50.2	50.2	81	44.6	1	4	112	0.00	29.704 
00:55	50.2	50.2	50.2	81	44.6	1	4	112	0.00	29.705 
01:00	50.2	50.2	50.2	80	44.3	1	5	135	0.00	29.705 
01:05	50.2	50.2	50.2	80	44.3	1	5	68	0.00	29.703 
01:10	50.2	50.2	50.2	80	44.3	1	4	90	0.00	29.703 
01:15	50.1	50.1	50.1	80	44.2	0	3	90	0.00	29.701 
01:20	50.1	50.1	50.1	79	43.8	1	3	90	0.00	29.702 
01:25	49.9	49.9	49.9	78	43.3	1	4	135	0.00	29.700 
01:30	49.9	49.9	49.9	78	43.3	1	4	112	0.00	29.696 
01:35	49.9	49.9	49.9	76	42.6	1	4	45	0.00	29.693 
01:40	49.9	49.9	49.9	75	42.3	1	5	112	0.00	29.689 
01:45	49.8	49.8	49.8	75	42.2	1	5	68	0.00	29.689 
01:50	49.8	49.8	49.8	72	41.1	1	5	112	0.00	29.689 
01:55	49.8	49.8	49.8	71	40.8	1	9	0	0.00	29.690 
02:00	49.6	49.6	49.6	69	39.9	2	4	112	0.00	29.689 
02:05	49.8	49.8	49.8	68	39.7	2	5	112	0.00	29.688 
02:10	49.6	49.6	49.6	69	39.9	1	4	90	0.00	29.690 
02:15	49.6	49.6	49.6	69	39.9	0	3	90	0.00	29.690 
02:20	49.6	49.6	49.6	69	39.9	0	3	135	0.00	29.690 
02:25	49.5	49.5	49.5	69	39.8	0	2	135	0.00	29.692 
02:30	49.5	49.5	49.5	67	39.0	1	4	112	0.00	29.689 
02:35	49.5	49.5	49.5	68	39.4	1	4	112	0.00	29.691 
02:40	49.5	49.5	49.5	68	39.4	0	2	45	0.00	29.698 
02:45	49.5	49.5	49.5	68	39.4	0	2	45	0.00	29.694 
02:50	49.5	49.5	49.5	67	39.0	1	3	45	0.00	29.691 
02:55	49.4	49.4	49.4	68	39.3	0	2	135	0.00	29.696 
03:00	49.4	49.4	49.4	68	39.3	1	4	112	0.00	29.699 
03:05	49.4	49.4	49.4	67	38.9	1	6	112	0.00	29.699 
03:10	49.4	49.4	49.4	67	38.9	0	3	158	0.00	29.704 
03:15	49.4	49.4	49.4	68	39.3	0	1	158	0.00	29.706 
03:20	49.4	49.4	49.4	67	38.9	0	2	45	0.00	29.707 
03:25	49.4	49.4	49.4	66	38.5	0	4	135	0.00	29.705 
03:30	49.4	49.4	49.4	65	38.1	1	7	90	0.00	29.706 
03:35	49.4	49.4	49.4	66	38.5	0	2	90	0.00	29.707 
03:40	49.2	49.2	49.2	65	37.9	0	3	112	0.00	29.708 
03:45	49.2	49.2	49.2	65	37.9	0	2	315	0.00	29.708 
03:50	49.2	49.2	49.2	66	38.3	0	2	338	0.00	29.706 
03:55	49.2	49.2	49.2	66	38.3	0	3	112	0.00	29.709 
04:00	49.2	49.2	49.2	66	38.3	0	3	112	0.00	29.714 
04:05	49.1	49.1	49.1	65	37.8	1	4	90	0.00	29.713 
04:10	49.1	49.1	49.1	65	37.8	0	3	68	0.00	29.713 
04:15	49.1	49.1	49.1	66	38.2	0	2	68	0.00	29.710 
04:20	49.1	49.1	49.1	66	38.2	0	2	135	0.00	29.707 
04:25	49.1	49.1	49.1	67	38.6	0	3	90	0.00	29.706 
04:30	49.1	49.1	49.1	66	38.2	1	4	90	0.00	29.706 
04:35	49.1	49.1	49.1	67	38.6	0	2	68	0.00	29.707 
04:40	48.9	48.9	48.9	66	38.0	1	3	68	0.00	29.706 
04:45	48.9	48.9	48.9	67	38.4	1	3	90	0.00	29.707 
04:50	48.9	48.9	48.9	68	38.8	0	2	90	0.00	29.707 
04:55	48.8	48.8	48.8	69	39.1	0	2	90	0.00	29.708 
05:00	48.6	48.6	48.6	69	38.9	0	2	90	0.00	29.708 
05:05	48.6	48.6	48.6	69	38.9	1	3	90	0.00	29.708 
05:10	48.5	48.5	48.5	69	38.8	1	5	45	0.00	29.709 
05:15	48.5	48.5	48.5	69	38.8	1	3	112	0.00	29.710 
05:20	48.6	48.6	48.6	69	38.9	1	4	68	0.00	29.710 
05:25	48.6	48.6	48.6	69	38.9	1	4	45	0.00	29.710 
05:30	48.6	48.6	48.6	70	39.3	0	2	90	0.00	29.710 
05:35	48.6	48.6	48.6	71	39.6	0	3	90	0.00	29.711 
05:40	48.6	48.6	48.6	71	39.6	0	2	90	0.00	29.715 
05:45	48.8	48.8	48.8	71	39.8	1	3	112	0.00	29.718 
05:50	48.8	48.8	48.8	71	39.8	1	3	112	0.00	29.719 
05:55	48.8	48.8	48.8	70	39.5	1	4	112	0.00	29.721 
06:00	48.9	48.9	48.9	71	39.9	1	3	112	0.00	29.722 
06:05	48.9	48.9	48.9	71	39.9	1	5	112	0.00	29.723 
06:10	48.9	48.9	48.9	71	39.9	1	5	135	0.00	29.724 
06:15	49.1	49.1	49.1	72	40.5	2	6	112	0.00	29.726 
06:20	49.1	49.1	49.1	72	40.5	1	3	90	0.00	29.731 
06:25	49.1	49.1	49.1	73	40.8	1	3	90	0.00	29.728 
06:30	49.1	49.1	49.1	72	40.5	1	5	90	0.00	29.724 
06:35	49.2	49.2	49.2	73	40.9	1	3	90	0.00	29.724 
06:40	49.2	49.2	49.2	73	40.9	2	5	112	0.00	29.725 
06:45	49.4	49.4	49.4	74	41.5	1	3	112	0.00	29.724 
06:50	49.4	49.4	49.4	74	41.5	0	2	112	0.00	29.726 
06:55	49.4	49.4	49.4	73	41.1	1	3	112	0.00	29.725 
07:00	49.4	49.4	49.4	73	41.1	1	5	68	0.00	29.726 
07:05	49.4	49.4	49.4	74	41.5	2	5	90	0.00	29.727 
07:10	49.4	49.4	49.4	73	41.1	2	6	112	0.00	29.729 
07:15	49.4	49.4	49.4	74	41.5	1	4	90	0.00	29.730 
07:20	49.5	49.5	49.5	74	41.6	1	4	135	0.00	29.731 
07:25	49.5	49.5	49.5	73	41.2	1	5	112	0.00	29.731 
07:30	49.6	49.6	49.6	74	41.7	1	4	112	0.00	29.731 
07:35	49.6	49.6	49.6	74	41.7	2	5	90	0.00	29.734 
07:40	49.8	49.8	49.8	74	41.9	1	5	90	0.00	29.735 
07:45	49.8	49.8	49.8	73	41.5	2	7	90	0.00	29.734 
07:50	49.9	49.9	49.9	73	41.6	2	3	112	0.00	29.734 
07:55	50.1	50.1	50.1	73	41.8	1	5	112	0.00	29.736 
08:00	50.2	50.2	50.2	73	41.9	1	4	112	0.00	29.738 
08:05	50.2	50.2	50.2	73	41.9	2	6	112	0.00	29.738 
08:10	50.4	50.4	50.4	74	42.4	1	4	112	0.00	29.737 
08:15	50.4	50.4	50.4	73	42.1	4	9	112	0.00	29.738 
08:20	50.4	50.4	50.4	73	42.1	2	7	112	0.00	29.739 
08:25	50.5	50.5	50.5	74	42.5	1	5	112	0.00	29.740 
08:30	50.7	50.7	50.7	72	42.0	2	7	112	0.00	29.738 
08:35	50.8	50.8	50.8	73	42.5	2	7	112	0.00	29.738 
08:40	50.8	50.8	50.8	73	42.5	2	5	112	0.00	29.740 
08:45	51.0	51.0	51.0	73	42.7	2	5	90	0.00	29.739 
08:50	51.1	51.1	51.1	73	42.7	2	6	90	0.00	29.738 
08:55	51.4	51.4	51.4	74	43.4	2	5	90	0.00	29.738 
09:00	51.6	51.6	51.6	72	42.9	2	5	90	0.00	29.737 
09:05	51.9	51.9	51.9	74	43.9	1	3	112	0.00	29.735 
09:10	52.0	52.0	52.0	71	42.9	2	7	90	0.00	29.733 
09:15	52.3	52.3	52.3	73	43.9	2	7	90	0.00	29.733 
09:20	52.5	52.5	52.5	71	43.4	2	6	112	0.00	29.732 
09:25	52.5	52.5	52.5	71	43.4	2	7	112	0.00	29.733 
09:30	52.8	52.8	52.8	72	44.0	2	4	112	0.00	29.733 
09:35	53.1	53.1	53.1	70	43.6	2	9	112	0.00	29.733 
09:40	53.3	53.3	53.3	71	44.1	2	6	90	0.00	29.734 
09:45	53.6	53.6	53.6	70	44.1	1	4	90	0.00	29.735 
09:50	53.8	53.8	53.8	69	43.9	0	2	112	0.00	29.737 
09:55	53.8	53.8	53.8	69	43.9	2	6	112	0.00	29.738 
10:00	53.8	53.8	53.8	68	43.5	2	6	112	0.00	29.743 
10:05	53.8	53.8	53.8	68	43.5	1	5	112	0.00	29.743 
10:10	53.8	53.8	53.8	68	43.5	1	4	112	0.00	29.743 
10:15	53.9	53.9	53.9	69	44.0	1	5	68	0.00	29.742 
10:20	54.1	54.1	54.1	70	44.5	0	2	135	0.00	29.738 
10:25	54.4	54.4	54.4	70	44.8	0	2	22	0.00	29.735 
10:30	54.8	54.8	54.8	70	45.2	1	3	45	0.00	29.733 
10:35	55.1	55.1	55.1	68	44.7	1	4	45	0.00	29.732 
10:40	55.6	55.6	55.6	68	45.2	2	4	135	0.00	29.730 
10:45	55.7	55.7	55.7	68	45.3	1	3	90	0.00	29.723 
10:50	55.9	55.9	55.9	66	44.7	2	5	135	0.00	29.720 
10:55	55.7	55.7	55.7	65	44.1	2	6	90	0.00	29.718 
11:00	55.9	55.9	55.9	67	45.1	1	4	112	0.00	29.720 
11:05	56.2	56.2	56.2	65	44.6	1	6	90	0.00	29.727 
11:10	56.3	56.3	56.3	65	44.7	1	5	112	0.00	29.728 
11:15	56.9	56.9	56.9	67	46.1	1	5	90	0.00	29.728 
11:20	57.5	57.5	57.5	66	46.2	0	2	90	0.00	29.732 
11:25	57.6	57.6	57.6	62	44.7	0	2	135	0.00	29.731 
11:30	57.8	57.8	57.8	63	45.3	1	5	135	0.00	29.728 
11:35	58.1	58.1	58.1	61	44.7	1	3	90	0.00	29.729 
11:40	58.0	58.0	58.0	60	44.2	2	5	68	0.00	29.731 
11:45	57.6	57.6	57.6	58	42.9	2	5	90	0.00	29.731 
11:50	57.2	57.2	57.2	57	42.1	2	7	112	0.00	29.732 
11:55	56.9	56.9	56.9	62	44.0	2	6	112	0.00	29.732 
12:00	57.0	57.0	57.0	61	43.7	1	4	112	0.00	29.732 
12:05	57.2	57.2	57.2	60	43.4	2	4	112	0.00	29.731 
12:10	57.3	57.3	57.3	59	43.1	1	4	112	0.00	29.731 
12:15	57.8	57.8	57.8	60	44.0	2	6	135	0.00	29.729 
12:20	58.0	58.0	58.0	58	43.3	1	5	112	0.00	29.729 
12:25	58.0	58.0	58.0	57	42.9	1	3	112	0.00	29.730 
12:30	58.1	58.1	58.1	58	43.4	1	2	112	0.00	29.731 
12:35	58.1	58.1	58.1	56	42.5	1	3	90	0.00	29.729 
12:40	58.3	58.3	58.3	57	43.1	1	5	90	0.00	29.726 
12:45	58.4	58.4	58.4	56	42.8	2	6	90	0.00	29.724 
12:50	58.6	58.6	58.6	54	42.0	0	2	90	0.00	29.726 
12:55	58.6	58.6	58.6	55	42.5	1	5	112	0.00	29.728 
13:00	58.6	58.6	58.6	58	43.9	0	2	112	0.00	29.726 
13:05	58.6	58.6	58.6	54	42.0	1	4	112	0.00	29.727 
13:10	58.6	58.6	58.6	55	42.5	1	3	90	0.00	29.729 
13:15	58.7	58.7	58.7	54	42.1	0	2	90	0.00	29.730 
13:20	58.7	58.7	58.7	55	42.6	1	3	112	0.00	29.728 
13:25	59.0	59.0	59.0	57	43.8	0	1	112	0.00	29.728 
13:30	59.2	59.2	59.2	56	43.5	1	3	112	0.00	29.728 
13:35	59.5	59.5	59.5	55	43.3	0	2	90	0.00	29.727 
13:40	59.5	59.5	59.5	53	42.4	1	4	90	0.00	29.728 
13:45	59.5	59.5	59.5	55	43.3	1	3	90	0.00	29.727 
13:50	59.6	59.6	59.6	56	43.9	1	4	68	0.00	29.725 
13:55	59.9	59.9	59.9	54	43.2	0	3	112	0.00	29.723 
14:00	60.1	60.1	60.1	57	44.8	0	3	112	0.00	29.722 
14:05	60.1	60.1	60.1	53	42.9	0	2	112	0.00	29.720 
14:10	60.1	60.1	60.1	54	43.4	0	3	158	0.00	29.718 
14:15	60.4	60.4	60.4	53	43.2	2	5	112	0.00	29.717 
14:20	60.4	60.4	60.4	51	42.2	2	4	112	0.00	29.717 
14:25	60.5	60.5	60.5	54	43.8	0	2	112	0.00	29.720 
14:30	60.4	60.4	60.4	54	43.7	2	5	90	0.00	29.716 
14:35	60.4	60.4	60.4	56	44.6	0	3	90	0.00	29.715 
14:40	60.4	60.4	60.4	55	44.2	1	3	90	0.00	29.715 
14:45	60.5	60.5	60.5	57	45.2	0	1	90	0.00	29.713 
14:50	60.5	60.5	60.5	54	43.8	2	7	112	0.00	29.711 
14:55	60.5	60.5	60.5	55	44.2	2	5	90	0.00	29.709 
15:00	60.5	60.5	60.5	54	43.8	2	6	90	0.00	29.708 
15:05	60.5	60.5	60.5	54	43.8	2	6	112	0.00	29.702 
15:10	60.5	60.5	60.5	54	43.8	1	4	112	0.00	29.699 
15:15	60.4	60.4	60.4	57	45.1	1	5	90	0.00	29.702 
15:20	60.4	60.4	60.4	55	44.2	1	3	90	0.00	29.701 
15:25	60.2	60.2	60.2	57	44.9	0	1	90	0.00	29.700 
15:30	60.1	60.1	60.1	55	43.9	1	3	90	0.00	29.700 
15:35	59.9	59.9	59.9	54	43.2	0	3	90	0.00	29.701 
15:40	59.8	59.8	59.8	54	43.1	1	2	90	0.00	29.702 
15:45	59.6	59.6	59.6	55	43.4	0	2	90	0.00	29.703 
15:50	59.6	59.6	59.6	53	42.4	0	1	90	0.00	29.702 
15:55	59.6	59.6	59.6	56	43.9	0	1	90	0.00	29.702 
16:00	59.6	59.6	59.6	60	45.7	0	2	90	0.00	29.704 
16:05	59.0	59.0	59.0	64	46.8	0	0	---	0.01	29.711 
16:10	58.4	58.4	58.4	69	48.3	0	1	90	0.00	29.712 
16:15	57.8	57.8	57.8	74	49.6	0	0	---	0.01	29.714 
16:20	57.3	57.3	57.3	76	49.8	0	0	---	0.00	29.714 
16:25	57.0	57.0	57.0	78	50.2	0	0	---	0.00	29.713 
16:30	56.9	56.9	56.9	80	50.8	0	0	---	0.00	29.714 
16:35	56.7	56.7	56.7	82	51.3	0	0	---	0.00	29.714 
16:40	56.7	56.7	56.7	82	51.3	0	0	---	0.00	29.715 
16:45	56.7	56.7	56.7	80	50.6	0	1	90	0.00	29.714 
16:50	56.7	56.7	56.7	80	50.6	0	1	90	0.00	29.715 
16:55	56.7	56.7	56.7	76	49.2	0	1	90	0.00	29.715 
17:00	56.9	56.9	56.9	75	49.1	0	1	90	0.00	29.715 
17:05	56.9	56.9	56.9	75	49.1	0	0	---	0.00	29.716 
17:10	56.9	56.9	56.9	73	48.3	0	0	---	0.00	29.717 
17:15	57.0	57.0	57.0	73	48.4	0	2	90	0.00	29.716 
17:20	57.0	57.0	57.0	72	48.1	0	2	90	0.00	29.717 
17:25	56.9	56.9	56.9	71	47.6	0	1	90	0.00	29.721 
17:30	56.9	56.9	56.9	71	47.6	0	1	90	0.00	29.719 
17:35	56.7	56.7	56.7	71	47.4	0	1	90	0.00	29.718 
17:40	56.7	56.7	56.7	73	48.1	0	0	---	0.00	29.718 
17:45	56.6	56.6	56.6	75	48.8	0	1	90	0.00	29.720 
17:50	56.6	56.6	56.6	77	49.5	0	0	---	0.00	29.725 
17:55	56.5	56.5	56.5	76	49.0	0	0	---	0.00	29.727 
18:00	56.3	56.3	56.3	78	49.5	0	0	---	0.00	29.732 
18:05	56.0	56.0	56.0	79	49.6	0	0	---	0.00	29.733 
18:10	55.9	55.9	55.9	79	49.5	0	0	---	0.01	29.734 
18:15	55.7	55.7	55.7	80	49.6	0	0	---	0.00	29.734 
18:20	55.4	55.4	55.4	81	49.7	0	0	---	0.00	29.736 
18:25	55.3	55.3	55.3	82	49.9	0	0	---	0.00	29.738 
18:30	55.1	55.1	55.1	84	50.4	0	0	---	0.00	29.741 
18:35	55.0	55.0	55.0	85	50.6	0	0	---	0.01	29.743 
18:40	54.8	54.8	54.8	86	50.7	0	0	---	0.01	29.745 
18:45	54.7	54.7	54.7	87	50.9	0	0	---	0.01	29.745 
18:50	54.5	54.5	54.5	88	51.0	0	0	---	0.00	29.745 
18:55	54.4	54.4	54.4	88	50.9	0	0	---	0.00	29.749 
19:00	54.4	54.4	54.4	90	51.5	0	0	---	0.00	29.750 
19:05	54.4	54.4	54.4	91	51.8	0	0	---	0.00	29.749 
19:10	54.4	54.4	54.4	91	51.8	0	0	---	0.00	29.752 
19:15	54.2	54.2	54.2	92	51.9	0	0	---	0.00	29.749 
19:20	54.1	54.1	54.1	92	51.8	0	0	---	0.00	29.748 
19:25	53.9	53.9	53.9	92	51.6	0	0	---	0.00	29.748 
19:30	53.6	53.6	53.6	92	51.3	0	0	---	0.00	29.747 
19:35	53.5	53.5	53.5	92	51.2	0	0	---	0.00	29.748 
19:40	53.3	53.3	53.3	92	51.0	0	0	---	0.00	29.750 
19:45	53.2	53.2	53.2	92	50.9	0	0	---	0.00	29.750 
19:50	53.2	53.2	53.2	92	50.9	0	0	---	0.00	29.751 
19:55	53.2	53.2	53.2	92	50.9	0	0	---	0.00	29.751 
20:00	53.1	53.1	53.1	93	51.1	0	0	---	0.00	29.754 
20:05	53.1	53.1	53.1	93	51.1	0	0	---	0.00	29.754 
20:10	52.9	52.9	52.9	93	50.9	0	0	---	0.00	29.754 
20:15	52.9	52.9	52.9	93	50.9	0	0	---	0.00	29.758 
20:20	52.8	52.8	52.8	93	50.8	0	0	---	0.00	29.762 
20:25	52.8	52.8	52.8	93	50.8	0	0	---	0.00	29.764 
20:30	52.8	52.8	52.8	93	50.8	0	0	---	0.00	29.765 
20:35	52.8	52.8	52.8	93	50.8	0	0	---	0.00	29.766 
20:40	52.8	52.8	52.8	94	51.1	0	0	---	0.00	29.765 
20:45	52.8	52.8	52.8	94	51.1	0	0	---	0.00	29.765 
20:50	52.8	52.8	52.8	94	51.1	0	0	---	0.00	29.765 
20:55	52.8	52.8	52.8	94	51.1	0	0	---	0.00	29.766 
21:00	52.6	52.6	52.6	94	50.9	0	0	---	0.00	29.769 
21:05	52.5	52.5	52.5	94	50.8	0	1	90	0.00	29.768 
21:10	52.3	52.3	52.3	94	50.6	0	0	---	0.00	29.769 
21:15	52.2	52.2	52.2	94	50.5	0	0	---	0.00	29.773 
21:20	52.0	52.0	52.0	94	50.3	0	0	---	0.00	29.772 
21:25	51.7	51.7	51.7	94	50.0	0	0	---	0.00	29.772 
21:30	51.6	51.6	51.6	94	49.9	0	0	---	0.00	29.769 
21:35	51.4	51.4	51.4	94	49.7	0	0	---	0.00	29.774 
21:40	51.1	51.1	51.1	94	49.4	0	0	---	0.00	29.778 
21:45	51.0	51.0	51.0	94	49.3	0	0	---	0.00	29.779 
21:50	50.8	50.8	50.8	94	49.1	0	1	90	0.00	29.780 
21:55	50.8	50.8	50.8	94	49.1	0	1	90	0.00	29.781 
22:00	50.8	50.8	50.8	94	49.1	0	0	---	0.00	29.781 
22:05	50.7	50.7	50.7	95	49.3	0	0	---	0.00	29.779 
22:10	50.5	50.5	50.5	95	49.1	0	0	---	0.00	29.779 
22:15	50.2	50.2	50.2	94	48.5	0	0	---	0.00	29.778 
22:20	49.9	49.9	49.9	94	48.2	0	0	---	0.00	29.779 
22:25	49.6	49.6	49.6	94	47.9	0	0	---	0.00	29.779 
22:30	49.5	49.5	49.5	94	47.8	0	0	---	0.00	29.780 
22:35	49.2	49.2	49.2	95	47.8	0	0	---	0.00	29.785 
22:40	49.1	49.1	49.1	95	47.7	0	0	---	0.00	29.784 
22:45	48.9	48.9	48.9	95	47.5	0	0	---	0.00	29.787 
22:50	48.8	48.8	48.8	95	47.4	0	0	---	0.00	29.790 
22:55	48.5	48.5	48.5	95	47.1	0	0	---	0.00	29.791 
23:00	48.3	48.3	48.3	94	46.7	0	0	---	0.00	29.791 
23:05	47.9	47.9	47.9	95	46.5	0	0	---	0.00	29.793 
23:10	47.7	47.7	47.7	95	46.3	0	0	---	0.00	29.791 
23:15	47.4	47.4	47.4	95	46.0	0	0	---	0.00	29.793 
23:20	47.3	47.3	47.3	95	45.9	0	0	---	0.00	29.794 
23:25	47.0	47.0	47.0	95	45.6	0	0	---	0.00	29.794 
23:30	46.8	46.8	46.8	95	45.4	0	0	---	0.00	29.795 
23:35	46.7	46.7	46.7	95	45.3	0	0	---	0.00	29.796 
23:40	46.5	46.5	46.5	95	45.1	0	0	---	0.00	29.797 
23:45	46.2	46.2	46.2	95	44.8	0	0	---	0.00	29.802 
23:50	46.1	46.1	46.1	95	44.7	0	0	---	0.00	29.806 
23:55	45.8	45.8	45.8	95	44.4	0	0	---	0.00	29.810 

CoCoRaHS
IN-AL-39
A2 Web Hosting
Creative Commons License
GoDaddy
Look for:

loaded 2017-10-17 22:28:31 • last modified 2010-11-18 10:43:29
Privacy PolicyDisclaimer
• wx.awcolley.com is powered by PmWiki v.2002016 •
• all content (unless otherwise noted) © 2017 A W Colley